createdAt,value
2023-04-08T00:01:32.500Z,45.37
2023-04-08T00:04:02.156Z,45.26
2023-04-08T00:06:31.648Z,45.49
2023-04-08T00:08:59.558Z,45.56
2023-04-08T00:11:27.529Z,45.28
2023-04-08T00:13:55.423Z,45.64
2023-04-08T00:16:23.596Z,45.41
2023-04-08T00:18:52.260Z,45.13
2023-04-08T00:21:21.895Z,45.38
2023-04-08T00:23:50.748Z,45.60
2023-04-08T00:26:18.731Z,45.74
2023-04-08T00:28:47.178Z,45.44
2023-04-08T00:31:15.114Z,45.39
2023-04-08T00:33:43.233Z,45.47
2023-04-08T00:36:12.138Z,45.79
2023-04-08T00:38:41.598Z,45.31
2023-04-08T00:41:09.520Z,45.57
2023-04-08T00:43:37.414Z,45.92
2023-04-08T00:46:06.700Z,45.69
2023-04-08T00:48:35.505Z,45.32
2023-04-08T00:51:03.630Z,45.78
2023-04-08T00:53:32.384Z,45.52
2023-04-08T00:56:01.840Z,45.46
2023-04-08T00:58:30.235Z,45.31
2023-04-08T01:01:01.756Z,45.92
2023-04-08T01:03:35.528Z,45.90
2023-04-08T01:06:07.963Z,46.00
2023-04-08T01:08:37.866Z,45.91
2023-04-08T01:11:07.571Z,45.47
2023-04-08T01:13:36.400Z,46.00
2023-04-08T01:16:04.928Z,46.14
2023-04-08T01:18:32.862Z,45.82
2023-04-08T01:21:00.846Z,46.13
2023-04-08T01:23:33.040Z,46.11
2023-04-08T01:26:02.366Z,46.55
2023-04-08T01:28:31.022Z,46.10
2023-04-08T01:31:01.069Z,46.29
2023-04-08T01:33:29.346Z,45.99
2023-04-08T01:35:57.665Z,46.20
2023-04-08T01:38:26.500Z,45.90
2023-04-08T01:40:54.628Z,46.46
2023-04-08T01:43:24.955Z,46.29
2023-04-08T01:45:54.613Z,46.51
2023-04-08T01:48:22.557Z,46.24
2023-04-08T01:50:51.321Z,46.28
2023-04-08T01:53:19.246Z,46.23
2023-04-08T01:55:47.157Z,46.42
2023-04-08T01:58:18.546Z,46.56
2023-04-08T02:00:47.899Z,46.76
2023-04-08T02:03:16.376Z,46.90
2023-04-08T02:05:47.235Z,46.48
2023-04-08T02:08:15.328Z,46.53
2023-04-08T02:10:43.271Z,46.57
2023-04-08T02:13:11.169Z,46.66
2023-04-08T02:15:39.966Z,46.69
2023-04-08T02:18:12.363Z,46.90
2023-04-08T02:20:43.338Z,47.21
2023-04-08T02:23:16.589Z,47.16
2023-04-08T02:25:46.431Z,46.81
2023-04-08T02:28:14.378Z,47.14
2023-04-08T02:30:43.731Z,46.98
2023-04-08T02:33:16.248Z,47.17
2023-04-08T02:35:44.622Z,47.22
2023-04-08T02:38:12.580Z,47.38
2023-04-08T02:40:40.548Z,47.42
2023-04-08T02:43:08.604Z,47.16
2023-04-08T02:45:39.264Z,47.57
2023-04-08T02:48:07.670Z,47.46
2023-04-08T02:50:36.991Z,46.90
2023-04-08T02:53:05.084Z,47.25
2023-04-08T02:55:34.654Z,47.07
2023-04-08T02:58:02.502Z,47.25
2023-04-08T03:00:30.528Z,47.39
2023-04-08T03:02:58.573Z,47.44
2023-04-08T03:05:27.237Z,47.49
2023-04-08T03:07:56.611Z,47.32
2023-04-08T03:10:24.650Z,47.66
2023-04-08T03:12:52.623Z,47.47
2023-04-08T03:15:20.634Z,47.24
2023-04-08T03:17:48.616Z,47.13
2023-04-08T03:20:16.688Z,47.40
2023-04-08T03:22:44.666Z,47.57
2023-04-08T03:25:14.065Z,47.40
2023-04-08T03:27:42.031Z,47.56
2023-04-08T03:30:10.387Z,47.78
2023-04-08T03:32:38.434Z,47.84
2023-04-08T03:35:07.174Z,48.05
2023-04-08T03:37:36.500Z,48.08
2023-04-08T03:40:04.676Z,48.11
2023-04-08T03:42:35.100Z,48.05
2023-04-08T03:45:04.810Z,47.86
2023-04-08T03:47:32.737Z,47.64
2023-04-08T03:50:00.659Z,47.78
2023-04-08T03:52:28.595Z,47.86
2023-04-08T03:54:57.409Z,47.23
2023-04-08T03:57:25.283Z,47.15
2023-04-08T03:59:55.185Z,47.38
2023-04-08T04:02:23.222Z,47.21
2023-04-08T04:04:51.464Z,47.33
2023-04-08T04:07:19.449Z,47.37
2023-04-08T04:09:47.497Z,47.48
2023-04-08T04:12:15.464Z,47.76
2023-04-08T04:14:43.452Z,47.75
2023-04-08T04:17:12.915Z,47.69
2023-04-08T04:19:40.843Z,47.86
2023-04-08T04:22:09.932Z,47.89
2023-04-08T04:24:37.837Z,47.69
2023-04-08T04:27:05.714Z,47.96
2023-04-08T04:29:33.611Z,47.74
2023-04-08T04:32:01.714Z,47.98
2023-04-08T04:34:31.225Z,47.68
2023-04-08T04:36:59.118Z,47.83
2023-04-08T04:39:27.468Z,48.31
2023-04-08T04:41:55.493Z,48.17
2023-04-08T04:44:24.123Z,48.45
2023-04-08T04:46:52.195Z,48.20
2023-04-08T04:49:20.632Z,48.41
2023-04-08T04:51:50.311Z,48.02
2023-04-08T04:54:18.405Z,48.45
2023-04-08T04:56:46.368Z,48.27
2023-04-08T04:59:14.423Z,48.21
2023-04-08T05:01:42.493Z,48.04
2023-04-08T05:04:10.589Z,48.31
2023-04-08T05:06:38.659Z,48.23
2023-04-08T05:09:08.107Z,48.08
2023-04-08T05:11:36.229Z,48.21
2023-04-08T05:14:04.146Z,47.88
2023-04-08T05:16:32.381Z,48.29
2023-04-08T05:19:00.444Z,47.80
2023-04-08T05:21:28.470Z,48.10
2023-04-08T05:23:56.566Z,47.67
2023-04-08T05:26:26.710Z,48.16
2023-04-08T05:28:56.772Z,48.02
2023-04-08T05:31:24.696Z,48.11
2023-04-08T05:33:52.793Z,48.18
2023-04-08T05:36:20.734Z,48.18
2023-04-08T05:38:49.062Z,47.90
2023-04-08T05:41:17.094Z,47.86
2023-04-08T05:43:46.442Z,47.92
2023-04-08T05:46:14.487Z,48.13
2023-04-08T05:48:42.419Z,48.21
2023-04-08T05:51:14.911Z,48.03
2023-04-08T05:53:42.902Z,48.40
2023-04-08T05:56:10.820Z,48.32
2023-04-08T05:58:39.226Z,48.46
2023-04-08T06:01:08.535Z,48.25
2023-04-08T06:03:36.614Z,48.13
2023-04-08T06:06:04.745Z,48.33
2023-04-08T06:08:32.709Z,48.16
2023-04-08T06:11:00.805Z,48.43
2023-04-08T06:13:32.764Z,48.24
2023-04-08T06:16:00.913Z,48.18
2023-04-08T06:18:30.132Z,48.23
2023-04-08T06:20:59.656Z,48.15
2023-04-08T06:23:27.772Z,48.03
2023-04-08T06:25:55.720Z,48.09
2023-04-08T06:28:23.728Z,48.05
2023-04-08T06:30:51.734Z,48.11
2023-04-08T06:33:19.813Z,48.08
2023-04-08T06:35:49.421Z,48.04
2023-04-08T06:38:17.380Z,48.09
2023-04-08T06:40:45.579Z,48.54
2023-04-08T06:43:13.519Z,48.60
2023-04-08T06:45:42.996Z,48.64
2023-04-08T06:48:10.934Z,48.57
2023-04-08T06:50:38.889Z,48.70
2023-04-08T06:53:10.637Z,48.92
2023-04-08T06:55:38.528Z,48.95
2023-04-08T06:58:06.609Z,49.21
2023-04-08T07:00:34.634Z,49.01
2023-04-08T07:03:02.628Z,49.00
2023-04-08T07:05:30.834Z,49.10
2023-04-08T07:07:58.758Z,49.12
2023-04-08T07:10:28.004Z,49.00
2023-04-08T07:12:56.900Z,49.13
2023-04-08T07:15:24.976Z,49.56
2023-04-08T07:17:52.914Z,49.79
2023-04-08T07:20:20.943Z,49.43
2023-04-08T07:22:48.823Z,49.48
2023-04-08T07:25:16.986Z,49.86
2023-04-08T07:27:46.242Z,49.94
2023-04-08T07:30:14.309Z,50.00
2023-04-08T07:32:42.274Z,50.12
2023-04-08T07:35:10.447Z,50.08
2023-04-08T07:37:38.445Z,50.05
2023-04-08T07:40:07.654Z,50.13
2023-04-08T07:42:35.676Z,50.15
2023-04-08T07:45:05.541Z,50.31
2023-04-08T07:47:33.471Z,50.23
2023-04-08T07:50:01.538Z,50.28
2023-04-08T07:52:29.846Z,50.39
2023-04-08T07:54:57.800Z,50.34
2023-04-08T07:57:27.473Z,50.18
2023-04-08T07:59:55.431Z,50.47
2023-04-08T08:02:24.884Z,50.35
2023-04-08T08:04:53.029Z,50.55
2023-04-08T08:07:21.198Z,50.40
2023-04-08T08:09:49.331Z,50.42
2023-04-08T08:12:17.603Z,50.44
2023-04-08T08:14:45.508Z,50.56
2023-04-08T08:17:13.583Z,50.61
2023-04-08T08:19:42.882Z,50.58
2023-04-08T08:22:10.957Z,50.67
2023-04-08T08:24:40.154Z,50.58
2023-04-08T08:27:08.192Z,50.50
2023-04-08T08:29:37.093Z,50.31
2023-04-08T08:32:05.076Z,50.45
2023-04-08T08:34:33.504Z,50.26
2023-04-08T08:37:02.932Z,50.18
2023-04-08T08:39:30.988Z,50.19
2023-04-08T08:41:58.997Z,50.32
2023-04-08T08:44:27.147Z,50.34
2023-04-08T08:46:55.130Z,50.51
2023-04-08T08:49:23.979Z,50.53
2023-04-08T08:51:52.150Z,50.37
2023-04-08T08:54:21.818Z,50.28
2023-04-08T08:56:50.039Z,50.27
2023-04-08T08:59:18.188Z,50.39
2023-04-08T09:01:46.385Z,50.27
2023-04-08T09:04:17.170Z,50.48
2023-04-08T09:06:46.730Z,50.43
2023-04-08T09:09:14.906Z,50.46
2023-04-08T09:11:47.248Z,50.40
2023-04-08T09:14:22.276Z,50.49
2023-04-08T09:16:50.832Z,50.26
2023-04-08T09:19:18.824Z,50.27
2023-04-08T09:21:47.755Z,50.05
2023-04-08T09:24:29.025Z,49.90
2023-04-08T09:26:58.587Z,49.62
2023-04-08T09:29:30.065Z,49.39
2023-04-08T09:32:00.815Z,48.86
2023-04-08T09:34:29.730Z,49.08
2023-04-08T09:36:57.797Z,49.04
2023-04-08T09:39:26.486Z,48.80
2023-04-08T09:41:55.131Z,48.53
2023-04-08T09:44:24.770Z,47.66
2023-04-08T09:46:59.114Z,47.16
2023-04-08T09:49:28.398Z,47.28
2023-04-08T09:52:01.002Z,47.11
2023-04-08T09:54:33.428Z,46.90
2023-04-08T09:57:06.079Z,46.47
2023-04-08T09:59:39.140Z,46.32
2023-04-08T10:02:14.135Z,45.85
2023-04-08T10:04:43.929Z,45.73
2023-04-08T10:07:14.205Z,45.48
2023-04-08T10:09:43.293Z,45.26
2023-04-08T10:12:11.403Z,45.42
2023-04-08T10:14:48.060Z,44.80
2023-04-08T10:17:26.468Z,44.66
2023-04-08T10:19:54.878Z,44.40
2023-04-08T10:22:48.281Z,44.22
2023-04-08T10:25:30.678Z,43.74
2023-04-08T10:27:58.667Z,43.16
2023-04-08T10:30:47.318Z,43.04
2023-04-08T10:33:17.362Z,42.78
2023-04-08T10:35:48.593Z,42.68
2023-04-08T10:38:17.857Z,42.57
2023-04-08T10:40:46.108Z,41.71
2023-04-08T10:43:16.196Z,41.16
2023-04-08T10:45:48.572Z,41.44
2023-04-08T10:48:18.894Z,41.54
2023-04-08T10:50:53.820Z,40.78
2023-04-08T10:53:27.095Z,40.59
2023-04-08T10:55:55.160Z,40.27
2023-04-08T10:58:23.281Z,39.55
2023-04-08T11:00:55.698Z,39.30
2023-04-08T11:03:23.974Z,39.01
2023-04-08T11:05:52.676Z,38.13
2023-04-08T11:08:21.293Z,37.86
2023-04-08T11:10:49.613Z,36.69
2023-04-08T11:13:19.061Z,36.38
2023-04-08T11:15:52.122Z,36.98
2023-04-08T11:18:21.937Z,36.57
2023-04-08T11:20:51.817Z,36.36
2023-04-08T11:23:19.955Z,36.33
2023-04-08T11:25:49.077Z,36.74
2023-04-08T11:28:18.032Z,36.54
2023-04-08T11:30:46.218Z,36.43
2023-04-08T11:33:14.630Z,35.87
2023-04-08T11:35:47.944Z,35.96
2023-04-08T11:38:16.093Z,35.47
2023-04-08T11:40:53.549Z,34.55
2023-04-08T11:43:22.277Z,34.29
2023-04-08T11:45:50.835Z,34.22
2023-04-08T11:48:19.481Z,33.77
2023-04-08T11:51:03.648Z,32.99
2023-04-08T11:53:32.274Z,33.03
2023-04-08T11:56:00.514Z,33.80
2023-04-08T11:58:28.692Z,34.48
2023-04-08T12:00:57.704Z,34.44
2023-04-08T12:03:26.082Z,34.16
2023-04-08T12:05:56.009Z,33.12
2023-04-08T12:08:24.266Z,32.67
2023-04-08T12:10:59.674Z,32.24
2023-04-08T12:13:31.997Z,32.15
2023-04-08T12:16:00.063Z,31.66
2023-04-08T12:18:28.319Z,32.08
2023-04-08T12:20:58.154Z,30.48
2023-04-08T12:23:26.306Z,30.38
2023-04-08T12:25:54.443Z,30.49
2023-04-08T12:28:23.275Z,28.93
2023-04-08T12:30:51.647Z,27.69
2023-04-08T12:33:19.672Z,27.14
2023-04-08T12:35:47.615Z,27.34
2023-04-08T12:38:17.508Z,27.97
2023-04-08T12:40:45.533Z,28.17
2023-04-08T12:43:13.892Z,28.46
2023-04-08T12:45:42.685Z,28.39
2023-04-08T12:48:10.925Z,28.38
2023-04-08T12:50:39.243Z,28.04
2023-04-08T12:53:07.227Z,28.45
2023-04-08T12:55:39.381Z,27.59
2023-04-08T12:58:07.551Z,27.50
2023-04-08T13:00:38.317Z,27.22
2023-04-08T13:03:07.370Z,26.62
2023-04-08T13:05:43.386Z,26.97
2023-04-08T13:08:12.464Z,27.12
2023-04-08T13:10:42.814Z,26.49
2023-04-08T13:13:12.652Z,26.22
2023-04-08T13:15:43.925Z,25.70
2023-04-08T13:18:12.006Z,26.13
2023-04-08T13:20:40.433Z,25.35
2023-04-08T13:23:08.490Z,25.46
2023-04-08T13:25:36.511Z,26.03
2023-04-08T13:28:06.117Z,26.22
2023-04-08T13:30:34.353Z,25.77
2023-04-08T13:33:04.961Z,26.40
2023-04-08T13:35:33.268Z,26.11
2023-04-08T13:38:01.423Z,26.11
2023-04-08T13:40:30.397Z,25.44
2023-04-08T13:43:00.829Z,25.72
2023-04-08T13:45:30.399Z,25.44
2023-04-08T13:48:00.241Z,25.48
2023-04-08T13:50:28.559Z,25.97
2023-04-08T13:52:57.478Z,26.24
2023-04-08T13:55:26.187Z,26.23
2023-04-08T13:57:56.457Z,25.97
2023-04-08T14:00:27.185Z,26.48
2023-04-08T14:02:56.786Z,26.74
2023-04-08T14:05:27.136Z,26.40
2023-04-08T14:07:55.700Z,26.75
2023-04-08T14:10:23.871Z,26.56
2023-04-08T14:12:54.768Z,27.10
2023-04-08T14:15:22.770Z,27.67
2023-04-08T14:17:50.888Z,26.89
2023-04-08T14:20:21.025Z,25.95
2023-04-08T14:22:49.176Z,25.61
2023-04-08T14:25:17.483Z,25.87
2023-04-08T14:27:57.313Z,25.95
2023-04-08T14:30:27.310Z,26.42
2023-04-08T14:32:55.767Z,27.02
2023-04-08T14:35:25.521Z,27.06
2023-04-08T14:37:53.800Z,27.56
2023-04-08T14:40:22.342Z,27.36
2023-04-08T14:42:54.452Z,27.84
2023-04-08T14:45:22.709Z,28.19
2023-04-08T14:47:51.730Z,27.75
2023-04-08T14:50:20.055Z,27.24
2023-04-08T14:52:51.041Z,27.40
2023-04-08T14:55:19.184Z,27.35
2023-04-08T14:57:47.188Z,27.36
2023-04-08T15:00:18.080Z,28.35
2023-04-08T15:02:46.296Z,28.06
2023-04-08T15:05:14.477Z,28.16
2023-04-08T15:07:42.979Z,28.34
2023-04-08T15:10:12.965Z,27.97
2023-04-08T15:12:41.035Z,27.81
2023-04-08T15:15:10.493Z,27.57
2023-04-08T15:17:40.398Z,26.83
2023-04-08T15:20:10.595Z,26.25
2023-04-08T15:22:38.640Z,26.28
2023-04-08T15:25:07.544Z,26.37
2023-04-08T15:27:37.947Z,25.99
2023-04-08T15:30:09.464Z,25.88
2023-04-08T15:32:39.995Z,25.69
2023-04-08T15:35:11.309Z,26.37
2023-04-08T15:37:39.744Z,26.58
2023-04-08T15:40:09.953Z,26.93
2023-04-08T15:42:39.431Z,27.23
2023-04-08T15:45:09.590Z,27.59
2023-04-08T15:47:37.815Z,27.20
2023-04-08T15:50:06.521Z,27.63
2023-04-08T15:52:35.671Z,27.85
2023-04-08T15:55:03.816Z,28.05
2023-04-08T15:57:32.551Z,28.04
2023-04-08T16:00:11.161Z,28.10
2023-04-08T16:02:42.448Z,28.19
2023-04-08T16:05:12.466Z,28.28
2023-04-08T16:07:42.181Z,28.47
2023-04-08T16:10:11.883Z,28.12
2023-04-08T16:12:39.964Z,28.05
2023-04-08T16:15:10.278Z,28.24
2023-04-08T16:17:38.378Z,28.38
2023-04-08T16:20:07.586Z,28.54
2023-04-08T16:22:36.882Z,28.70
2023-04-08T16:25:05.473Z,29.15
2023-04-08T16:27:33.722Z,29.05
2023-04-08T16:30:03.941Z,29.21
2023-04-08T16:32:34.043Z,29.77
2023-04-08T16:35:02.215Z,29.70
2023-04-08T16:37:30.489Z,30.09
2023-04-08T16:40:01.623Z,29.82
2023-04-08T16:42:29.751Z,29.78
2023-04-08T16:44:58.050Z,29.70
2023-04-08T16:47:26.494Z,29.79
2023-04-08T16:49:55.994Z,29.75
2023-04-08T16:52:24.155Z,29.56
2023-04-08T16:54:52.406Z,29.98
2023-04-08T16:57:20.500Z,30.22
2023-04-08T16:59:48.568Z,30.52
2023-04-08T17:02:16.721Z,30.54
2023-04-08T17:04:44.685Z,30.43
2023-04-08T17:07:14.594Z,30.77
2023-04-08T17:09:42.722Z,31.05
2023-04-08T17:12:10.669Z,31.20
2023-04-08T17:14:38.610Z,31.68
2023-04-08T17:17:06.633Z,31.60
2023-04-08T17:19:34.610Z,31.43
2023-04-08T17:22:02.771Z,31.50
2023-04-08T17:24:32.101Z,31.15
2023-04-08T17:27:00.676Z,31.37
2023-04-08T17:29:28.574Z,31.48
2023-04-08T17:31:56.607Z,31.71
2023-04-08T17:34:24.864Z,31.91
2023-04-08T17:36:55.241Z,32.28
2023-04-08T17:39:23.259Z,32.54
2023-04-08T17:41:54.395Z,32.46
2023-04-08T17:44:22.414Z,32.55
2023-04-08T17:46:50.389Z,32.93
2023-04-08T17:49:18.594Z,32.94
2023-04-08T17:51:46.526Z,33.19
2023-04-08T17:54:14.747Z,33.34
2023-04-08T17:56:44.668Z,33.36
2023-04-08T17:59:14.586Z,33.99
2023-04-08T18:01:42.804Z,33.99
2023-04-08T18:04:12.459Z,34.12
2023-04-08T18:06:40.702Z,34.44
2023-04-08T18:09:08.817Z,34.89
2023-04-08T18:11:37.051Z,35.13
2023-04-08T18:14:06.357Z,35.47
2023-04-08T18:16:36.128Z,35.84
2023-04-08T18:19:04.594Z,35.84
2023-04-08T18:21:32.803Z,36.16
2023-04-08T18:24:01.084Z,36.25
2023-04-08T18:26:29.548Z,36.38
2023-04-08T18:28:57.688Z,36.54
2023-04-08T18:31:25.738Z,37.09
2023-04-08T18:33:55.198Z,37.26
2023-04-08T18:36:23.484Z,37.88
2023-04-08T18:38:51.477Z,38.23
2023-04-08T18:41:20.984Z,38.61
2023-04-08T18:43:49.115Z,38.71
2023-04-08T18:46:17.947Z,39.06
2023-04-08T18:48:45.987Z,39.19
2023-04-08T18:51:16.676Z,39.53
2023-04-08T18:53:44.779Z,39.68
2023-04-08T18:56:16.054Z,39.81
2023-04-08T18:58:44.575Z,39.92
2023-04-08T19:01:12.538Z,40.33
2023-04-08T19:03:40.569Z,40.46
2023-04-08T19:06:09.096Z,40.62
2023-04-08T19:08:38.481Z,40.84
2023-04-08T19:11:06.796Z,40.80
2023-04-08T19:13:34.994Z,40.89
2023-04-08T19:16:03.053Z,41.26
2023-04-08T19:18:31.333Z,41.57
2023-04-08T19:20:59.629Z,41.88
2023-04-08T19:23:27.563Z,42.01
2023-04-08T19:25:56.931Z,42.18
2023-04-08T19:28:24.990Z,42.09
2023-04-08T19:30:52.954Z,42.43
2023-04-08T19:33:21.117Z,42.51
2023-04-08T19:35:51.105Z,42.72
2023-04-08T19:38:19.117Z,42.79
2023-04-08T19:40:48.097Z,42.88
2023-04-08T19:43:17.858Z,42.92
2023-04-08T19:45:48.711Z,43.02
2023-04-08T19:48:18.101Z,43.33
2023-04-08T19:50:46.240Z,43.58
2023-04-08T19:53:14.275Z,43.60
2023-04-08T19:55:42.559Z,43.59
2023-04-08T19:58:10.812Z,43.62
2023-04-08T20:00:40.156Z,43.91
2023-04-08T20:03:08.830Z,44.13
2023-04-08T20:05:37.064Z,43.84
2023-04-08T20:08:05.352Z,44.40
2023-04-08T20:10:35.588Z,44.68
2023-04-08T20:13:03.900Z,44.77
2023-04-08T20:15:32.223Z,44.60
2023-04-08T20:18:01.935Z,45.14
2023-04-08T20:20:30.117Z,45.21
2023-04-08T20:22:58.217Z,45.20
2023-04-08T20:25:26.112Z,45.36
2023-04-08T20:27:54.221Z,45.48
2023-04-08T20:30:22.749Z,45.64
2023-04-08T20:32:50.767Z,45.69
2023-04-08T20:35:21.131Z,45.58
2023-04-08T20:37:49.178Z,45.95
2023-04-08T20:40:18.354Z,45.59
2023-04-08T20:42:46.659Z,45.93
2023-04-08T20:45:14.693Z,45.88
2023-04-08T20:47:44.576Z,46.01
2023-04-08T20:50:12.671Z,46.21
2023-04-08T20:52:42.126Z,46.33
2023-04-08T20:55:10.983Z,46.46
2023-04-08T20:57:38.958Z,46.29
2023-04-08T21:00:07.975Z,46.60
2023-04-08T21:02:36.422Z,46.41
2023-04-08T21:05:04.901Z,46.86
2023-04-08T21:07:32.894Z,46.58
2023-04-08T21:10:02.134Z,46.60
2023-04-08T21:12:30.071Z,46.75
2023-04-08T21:14:58.067Z,46.71
2023-04-08T21:17:26.119Z,46.85
2023-04-08T21:19:54.073Z,46.96
2023-04-08T21:22:22.139Z,47.17
2023-04-08T21:24:50.346Z,47.09
2023-04-08T21:27:19.679Z,47.28
2023-04-08T21:29:47.549Z,47.46
2023-04-08T21:32:16.373Z,47.51
2023-04-08T21:34:44.376Z,47.63
2023-04-08T21:37:12.516Z,47.41
2023-04-08T21:39:40.483Z,47.90
2023-04-08T21:42:08.384Z,47.77
2023-04-08T21:44:38.190Z,47.75
2023-04-08T21:47:06.177Z,47.81
2023-04-08T21:49:34.126Z,47.74
2023-04-08T21:52:03.224Z,48.05
2023-04-08T21:54:31.159Z,47.94
2023-04-08T21:56:59.177Z,48.00
2023-04-08T21:59:27.734Z,48.26
2023-04-08T22:01:57.233Z,48.29
2023-04-08T22:04:25.253Z,48.37
2023-04-08T22:06:53.210Z,48.55
2023-04-08T22:09:21.163Z,48.36
2023-04-08T22:11:49.078Z,48.46
2023-04-08T22:14:17.499Z,48.52
2023-04-08T22:16:45.848Z,48.42
2023-04-08T22:19:15.532Z,48.41
2023-04-08T22:21:43.587Z,48.49
2023-04-08T22:24:11.527Z,48.75
2023-04-08T22:26:39.557Z,48.79
2023-04-08T22:29:07.478Z,48.55
2023-04-08T22:31:35.753Z,48.79
2023-04-08T22:34:03.745Z,48.91
2023-04-08T22:36:33.224Z,48.81
2023-04-08T22:39:01.297Z,48.90
2023-04-08T22:41:29.235Z,48.98
2023-04-08T22:43:57.285Z,49.04
2023-04-08T22:46:25.484Z,49.33
2023-04-08T22:48:53.697Z,49.08
2023-04-08T22:51:22.443Z,49.17
2023-04-08T22:53:51.786Z,49.21
2023-04-08T22:56:19.742Z,49.27
2023-04-08T22:58:47.628Z,49.40
2023-04-08T23:01:17.206Z,49.35
2023-04-08T23:03:45.493Z,49.43
2023-04-08T23:06:13.502Z,49.70
2023-04-08T23:08:41.441Z,49.55
2023-04-08T23:11:10.890Z,49.60
2023-04-08T23:13:38.842Z,49.56
2023-04-08T23:16:07.256Z,49.90
2023-04-08T23:18:35.368Z,50.00
2023-04-08T23:21:03.918Z,49.87
2023-04-08T23:23:31.958Z,50.02
2023-04-08T23:26:00.041Z,49.99
2023-04-08T23:28:29.294Z,49.91
2023-04-08T23:30:57.279Z,49.89
2023-04-08T23:33:25.383Z,49.98
2023-04-08T23:35:53.363Z,50.12
2023-04-08T23:38:21.278Z,50.20
2023-04-08T23:40:49.545Z,50.14
2023-04-08T23:43:17.496Z,50.20
2023-04-08T23:45:46.800Z,50.15
2023-04-08T23:48:14.809Z,50.36
2023-04-08T23:50:42.741Z,50.46
2023-04-08T23:53:10.853Z,50.58
2023-04-08T23:55:38.788Z,50.72
2023-04-08T23:58:06.667Z,50.44
